createdAt,value
2022-11-15T00:00:18.181Z,11.1
2022-11-15T00:03:43.418Z,11.07
2022-11-15T00:07:09.207Z,11.06
2022-11-15T00:10:33.939Z,11.09
2022-11-15T00:13:59.228Z,11.09
2022-11-15T00:17:24.475Z,11.11
2022-11-15T00:20:49.731Z,11.11
2022-11-15T00:24:14.979Z,11.11
2022-11-15T00:27:40.283Z,11.12
2022-11-15T00:31:05.515Z,11.11
2022-11-15T00:34:30.783Z,11.13
2022-11-15T00:37:56.031Z,11.12
2022-11-15T00:41:21.293Z,11.14
2022-11-15T00:44:46.576Z,11.16
2022-11-15T00:48:11.816Z,11.16
2022-11-15T00:51:37.070Z,11.2
2022-11-15T00:55:02.323Z,11.21
2022-11-15T00:58:27.585Z,11.2
2022-11-15T01:01:52.877Z,11.22
2022-11-15T01:05:18.090Z,11.23
2022-11-15T01:08:43.334Z,11.3
2022-11-15T01:12:08.607Z,11.33
2022-11-15T01:15:33.853Z,11.34
2022-11-15T01:18:59.128Z,11.32
2022-11-15T01:22:24.348Z,11.33
2022-11-15T01:25:49.601Z,11.33
2022-11-15T01:29:14.845Z,11.33
2022-11-15T01:32:40.087Z,11.33
2022-11-15T01:36:05.357Z,11.33
2022-11-15T01:39:30.604Z,11.34
2022-11-15T01:42:55.889Z,11.36
2022-11-15T01:46:21.128Z,11.36
2022-11-15T01:49:46.369Z,11.38
2022-11-15T01:53:11.644Z,11.38
2022-11-15T01:56:36.893Z,11.42
2022-11-15T02:00:02.131Z,11.46
2022-11-15T02:03:27.386Z,11.49
2022-11-15T02:06:52.708Z,11.49
2022-11-15T02:10:17.906Z,11.5
2022-11-15T02:13:43.130Z,11.54
2022-11-15T02:17:08.370Z,11.55
2022-11-15T02:20:33.655Z,11.57
2022-11-15T02:23:58.885Z,11.57
2022-11-15T02:27:24.175Z,11.56
2022-11-15T02:30:49.459Z,11.53
2022-11-15T02:34:14.699Z,11.56
2022-11-15T02:37:39.973Z,11.59
2022-11-15T02:41:05.206Z,11.61
2022-11-15T02:44:30.488Z,11.6
2022-11-15T02:47:55.708Z,11.6
2022-11-15T02:51:20.982Z,11.57
2022-11-15T02:54:46.248Z,11.51
2022-11-15T02:58:11.505Z,11.46
2022-11-15T03:01:36.806Z,11.41
2022-11-15T03:05:02.023Z,11.34
2022-11-15T03:08:27.295Z,11.27
2022-11-15T03:11:52.549Z,11.16
2022-11-15T03:15:17.772Z,11.09
2022-11-15T03:18:43.064Z,11.02
2022-11-15T03:22:08.289Z,10.98
2022-11-15T03:25:33.553Z,10.92
2022-11-15T03:28:58.791Z,10.87
2022-11-15T03:32:24.048Z,10.8
2022-11-15T03:35:49.312Z,10.74
2022-11-15T03:39:19.277Z,10.66
2022-11-15T03:42:39.794Z,10.63
2022-11-15T03:46:05.058Z,10.59
2022-11-15T03:49:30.333Z,10.56
2022-11-15T03:52:55.613Z,10.49
2022-11-15T03:56:20.866Z,10.47
2022-11-15T03:59:46.116Z,10.43
2022-11-15T04:03:11.358Z,10.43
2022-11-15T04:06:36.609Z,10.46
2022-11-15T04:10:01.856Z,10.45
2022-11-15T04:13:27.100Z,10.47
2022-11-15T04:16:52.336Z,10.47
2022-11-15T04:20:17.607Z,10.45
2022-11-15T04:23:42.886Z,10.42
2022-11-15T04:27:08.137Z,10.45
2022-11-15T04:30:33.361Z,10.49
2022-11-15T04:33:58.622Z,10.58
2022-11-15T04:37:23.844Z,10.65
2022-11-15T04:40:49.101Z,10.72
2022-11-15T04:44:14.340Z,10.78
2022-11-15T04:47:39.546Z,10.82
2022-11-15T04:51:05.432Z,10.85
2022-11-15T04:54:30.503Z,10.85
2022-11-15T04:57:55.866Z,10.82
2022-11-15T05:01:21.237Z,10.74
2022-11-15T05:04:46.574Z,10.63
2022-11-15T05:08:11.953Z,10.56
2022-11-15T05:11:37.306Z,10.46
2022-11-15T05:15:02.576Z,10.38
2022-11-15T05:18:27.821Z,10.32
2022-11-15T05:21:53.068Z,10.31
2022-11-15T05:25:18.338Z,10.28
2022-11-15T05:28:43.604Z,10.25
2022-11-15T05:32:08.839Z,10.27
2022-11-15T05:35:34.145Z,10.29
2022-11-15T05:38:59.339Z,10.31
2022-11-15T05:42:24.600Z,10.32
2022-11-15T05:45:49.865Z,10.33
2022-11-15T05:49:15.215Z,10.33
2022-11-15T05:52:40.448Z,10.35
2022-11-15T05:56:05.688Z,10.37
2022-11-15T05:59:30.950Z,10.38
2022-11-15T06:02:56.198Z,10.42
2022-11-15T06:06:21.474Z,10.48
2022-11-15T06:09:46.750Z,10.57
2022-11-15T06:13:11.960Z,10.6
2022-11-15T06:16:37.240Z,10.64
2022-11-15T06:20:02.468Z,10.69
2022-11-15T06:23:27.686Z,10.71
2022-11-15T06:26:52.964Z,10.75
2022-11-15T06:30:18.211Z,10.75
2022-11-15T06:33:43.456Z,10.76
2022-11-15T06:37:08.734Z,10.77
2022-11-15T06:40:34.015Z,10.78
2022-11-15T06:43:59.465Z,10.79
2022-11-15T06:47:27.495Z,10.79
2022-11-15T06:50:55.260Z,10.82
2022-11-15T06:54:19.335Z,10.84
2022-11-15T06:57:50.694Z,10.88
2022-11-15T07:01:17.523Z,10.93
2022-11-15T07:04:44.807Z,10.99
2022-11-15T07:08:11.637Z,11.04
2022-11-15T07:11:36.892Z,11.12
2022-11-15T07:15:02.133Z,11.17
2022-11-15T07:18:27.406Z,11.23
2022-11-15T07:21:52.619Z,11.32
2022-11-15T07:25:17.905Z,11.37
2022-11-15T07:28:43.168Z,11.42
2022-11-15T07:32:08.451Z,11.48
2022-11-15T07:35:33.716Z,11.52
2022-11-15T07:38:58.947Z,11.58
2022-11-15T07:42:24.199Z,11.64
2022-11-15T07:45:50.250Z,11.69
2022-11-15T07:49:14.837Z,11.73
2022-11-15T07:52:40.075Z,11.78
2022-11-15T07:56:05.322Z,11.84
2022-11-15T07:59:30.604Z,11.9
2022-11-15T08:02:55.993Z,11.96
2022-11-15T08:06:21.139Z,12.02
2022-11-15T08:09:46.396Z,12.08
2022-11-15T08:13:11.644Z,12.17
2022-11-15T08:16:36.865Z,12.25
2022-11-15T08:20:02.795Z,12.33
2022-11-15T08:23:28.101Z,12.41
2022-11-15T08:26:53.955Z,12.51
2022-11-15T08:30:19.920Z,12.56
2022-11-15T08:33:45.164Z,12.63
2022-11-15T08:37:10.442Z,12.69
2022-11-15T08:40:35.698Z,12.75
2022-11-15T08:44:00.964Z,12.8
2022-11-15T08:47:26.203Z,12.84
2022-11-15T08:50:51.489Z,12.87
2022-11-15T08:54:16.739Z,12.92
2022-11-15T08:57:41.997Z,12.99
2022-11-15T09:01:07.479Z,13.04
2022-11-15T09:04:32.576Z,13.12
2022-11-15T09:07:57.856Z,13.18
2022-11-15T09:11:23.098Z,13.24
2022-11-15T09:14:48.369Z,13.29
2022-11-15T09:18:13.630Z,13.35
2022-11-15T09:21:38.876Z,13.43
2022-11-15T09:25:07.291Z,13.52
2022-11-15T09:28:29.706Z,13.61
2022-11-15T09:31:54.707Z,13.73
2022-11-15T09:35:20.000Z,13.85
2022-11-15T09:38:45.201Z,13.94
2022-11-15T09:42:10.464Z,14.01
2022-11-15T09:45:35.763Z,14.09
2022-11-15T09:49:00.997Z,14.14
2022-11-15T09:52:26.273Z,14.21
2022-11-15T09:55:51.518Z,14.27
2022-11-15T09:59:16.774Z,14.32
2022-11-15T10:02:42.055Z,14.4
2022-11-15T10:06:07.323Z,14.45
2022-11-15T10:09:32.592Z,14.51
2022-11-15T10:12:57.801Z,14.57
2022-11-15T10:16:23.068Z,14.64
2022-11-15T10:19:48.337Z,14.73
2022-11-15T10:23:13.574Z,14.77
2022-11-15T10:26:38.847Z,14.81
2022-11-15T10:30:04.109Z,14.88
2022-11-15T10:33:29.394Z,14.96
2022-11-15T10:36:54.676Z,15.07
2022-11-15T10:40:19.944Z,15.18
2022-11-15T10:43:45.247Z,15.28
2022-11-15T10:47:10.461Z,15.39
2022-11-15T10:50:35.702Z,15.49
2022-11-15T10:54:00.934Z,15.54
2022-11-15T10:57:26.183Z,15.56
2022-11-15T11:00:51.562Z,15.55
2022-11-15T11:04:16.655Z,15.56
2022-11-15T11:07:41.894Z,15.59
2022-11-15T11:11:07.173Z,15.62
2022-11-15T11:14:32.410Z,15.65
2022-11-15T11:17:57.715Z,15.65
2022-11-15T11:21:27.164Z,15.63
2022-11-15T11:24:48.218Z,15.63
2022-11-15T11:28:13.463Z,15.64
2022-11-15T11:31:38.743Z,15.64
2022-11-15T11:35:03.998Z,15.65
2022-11-15T11:38:29.456Z,15.67
2022-11-15T11:41:54.524Z,15.67
2022-11-15T11:45:19.749Z,15.72
2022-11-15T11:48:44.992Z,15.76
2022-11-15T11:52:10.281Z,15.84
2022-11-15T11:55:35.514Z,15.88
2022-11-15T11:59:00.793Z,15.92
2022-11-15T12:02:26.099Z,15.97
2022-11-15T12:05:51.329Z,16.01
2022-11-15T12:09:16.599Z,16.059999
2022-11-15T12:12:41.828Z,16.08
2022-11-15T12:16:10.196Z,16.07
2022-11-15T12:19:32.348Z,16.059999
2022-11-15T12:22:57.590Z,16.049999
2022-11-15T12:26:23.096Z,16.07
2022-11-15T12:29:48.135Z,16.059999
2022-11-15T12:33:13.473Z,16.049999
2022-11-15T12:36:38.723Z,16.049999
2022-11-15T12:40:04.507Z,16.040001
2022-11-15T12:43:29.340Z,16.040001
2022-11-15T12:46:54.563Z,16.030001
2022-11-15T12:50:19.848Z,16.01
2022-11-15T12:53:45.118Z,16.01
2022-11-15T12:57:10.424Z,16.01
2022-11-15T13:00:35.885Z,15.99
2022-11-15T13:04:01.093Z,15.99
2022-11-15T13:07:26.403Z,15.98
2022-11-15T13:10:51.631Z,15.99
2022-11-15T13:14:16.951Z,16.02
2022-11-15T13:17:42.235Z,16.02
2022-11-15T13:21:07.482Z,15.96
2022-11-15T13:24:32.824Z,15.84
2022-11-15T13:27:58.993Z,15.78
2022-11-15T13:31:23.315Z,15.69
2022-11-15T13:34:52.768Z,15.59
2022-11-15T13:38:13.794Z,15.51
2022-11-15T13:41:39.046Z,15.47
2022-11-15T13:45:04.268Z,15.43
2022-11-15T13:48:29.793Z,15.38
2022-11-15T13:51:54.780Z,15.28
2022-11-15T13:55:19.986Z,15.19
2022-11-15T13:58:45.229Z,15.15
2022-11-15T14:02:10.523Z,15.1
2022-11-15T14:05:35.728Z,15.05
2022-11-15T14:09:01.048Z,14.99
2022-11-15T14:12:26.206Z,14.96
2022-11-15T14:15:51.430Z,14.96
2022-11-15T14:19:16.666Z,14.95
2022-11-15T14:22:41.912Z,14.92
2022-11-15T14:26:11.812Z,14.89
2022-11-15T14:29:32.378Z,14.87
2022-11-15T15:04:24.032Z,12.25
2022-11-15T15:07:49.575Z,13.1
2022-11-15T15:11:14.559Z,13.22
2022-11-15T15:14:39.835Z,13.3
2022-11-15T15:18:05.114Z,13.36
2022-11-15T15:21:35.560Z,13.36
2022-11-15T15:24:55.673Z,13.38
2022-11-15T15:28:20.968Z,13.37
2022-11-15T15:31:46.236Z,13.38
2022-11-15T15:35:11.531Z,13.41
2022-11-15T15:38:36.848Z,13.43
2022-11-15T15:42:02.100Z,13.43
2022-11-15T15:45:27.393Z,13.43
2022-11-15T15:48:52.691Z,13.44
2022-11-15T15:52:17.947Z,13.43
2022-11-15T15:55:43.271Z,13.42
2022-11-15T15:59:08.615Z,13.41
2022-11-15T16:02:37.685Z,13.38
2022-11-15T16:05:59.102Z,13.38
2022-11-15T16:09:24.748Z,13.38
2022-11-15T16:12:49.713Z,13.39
2022-11-15T16:16:14.975Z,13.43
2022-11-15T16:19:40.310Z,13.46
2022-11-15T16:23:08.890Z,13.49
2022-11-15T16:26:30.820Z,13.54
2022-11-15T16:29:56.097Z,13.55
2022-11-15T16:33:21.314Z,13.59
2022-11-15T16:36:46.574Z,13.62
2022-11-15T16:40:11.838Z,13.62
2022-11-15T16:43:37.223Z,13.58
2022-11-15T16:47:02.481Z,13.54
2022-11-15T16:50:27.698Z,13.47
2022-11-15T16:53:52.934Z,13.4
2022-11-15T16:57:18.150Z,13.33
2022-11-15T17:00:43.579Z,13.3
2022-11-15T17:04:08.715Z,13.29
2022-11-15T17:07:33.987Z,13.27
2022-11-15T17:10:59.187Z,13.25
2022-11-15T17:14:24.440Z,13.19
2022-11-15T17:17:49.676Z,13.14
2022-11-15T17:21:14.974Z,13.1
2022-11-15T17:24:40.196Z,13.09
2022-11-15T17:28:05.428Z,13.14
2022-11-15T17:31:30.710Z,13.16
2022-11-15T17:34:56.042Z,13.21
2022-11-15T17:38:21.405Z,13.22
2022-11-15T17:41:46.716Z,13.25
2022-11-15T17:45:12.058Z,13.26
2022-11-15T17:48:37.380Z,13.29
2022-11-15T17:52:02.697Z,13.29
2022-11-15T17:55:28.064Z,13.29
2022-11-15T17:58:53.351Z,13.29
2022-11-15T18:02:18.683Z,13.3
2022-11-15T18:05:44.022Z,13.29
2022-11-15T18:09:09.325Z,13.26
2022-11-15T18:12:34.682Z,13.22
2022-11-15T18:15:59.987Z,13.18
2022-11-15T18:19:25.291Z,13.14
2022-11-15T18:22:50.830Z,13.08
2022-11-15T18:26:16.166Z,13.04
2022-11-15T18:29:41.589Z,13.01
2022-11-15T18:33:06.895Z,12.95
2022-11-15T18:36:32.257Z,12.9
2022-11-15T18:39:57.581Z,12.85
2022-11-15T18:43:22.923Z,12.78
2022-11-15T18:46:48.263Z,12.69
2022-11-15T18:50:13.574Z,12.57
2022-11-15T18:53:38.910Z,12.43
2022-11-15T18:57:04.254Z,12.32
2022-11-15T19:00:29.595Z,12.26
2022-11-15T19:03:54.963Z,12.25
2022-11-15T19:07:20.413Z,12.29
2022-11-15T19:10:45.655Z,12.35
2022-11-15T19:14:11.749Z,12.39
2022-11-15T19:17:37.091Z,12.42
2022-11-15T19:21:02.480Z,12.45
2022-11-15T19:24:27.809Z,12.47
2022-11-15T19:27:53.119Z,12.48
2022-11-15T19:31:18.430Z,12.51
2022-11-15T19:34:43.744Z,12.54
2022-11-15T19:38:09.101Z,12.54
2022-11-15T19:41:34.378Z,12.56
2022-11-15T19:44:59.755Z,12.57
2022-11-15T19:48:25.068Z,12.58
2022-11-15T19:51:50.386Z,12.55
2022-11-15T19:55:15.700Z,12.52
2022-11-15T19:58:41.048Z,12.49
2022-11-15T20:02:06.354Z,12.5
2022-11-15T20:05:32.106Z,12.46
2022-11-15T20:08:57.429Z,12.41
2022-11-15T20:12:22.826Z,12.37
2022-11-15T20:15:48.138Z,12.31
2022-11-15T20:19:13.460Z,12.26
2022-11-15T20:22:38.812Z,12.24
2022-11-15T20:26:04.150Z,12.25
2022-11-15T20:29:29.498Z,12.25
2022-11-15T20:32:54.807Z,12.24
2022-11-15T20:36:20.126Z,12.19
2022-11-15T20:39:45.439Z,12.17
2022-11-15T20:43:10.758Z,12.16
2022-11-15T20:46:36.113Z,12.19
2022-11-15T20:50:15.153Z,12.21
2022-11-15T20:53:30.592Z,12.23
2022-11-15T20:56:52.982Z,12.23
2022-11-15T21:00:18.384Z,12.21
2022-11-15T21:03:43.644Z,12.22
2022-11-15T21:07:08.871Z,12.23
2022-11-15T21:10:34.078Z,12.24
2022-11-15T21:13:59.310Z,12.22
2022-11-15T21:17:24.559Z,12.23
2022-11-15T21:20:49.851Z,12.21
2022-11-15T21:24:15.029Z,12.17
2022-11-15T21:27:40.263Z,12.14
2022-11-15T21:31:05.492Z,12.15
2022-11-15T21:34:30.737Z,12.15
2022-11-15T21:37:57.090Z,12.15
2022-11-15T21:41:21.219Z,12.16
2022-11-15T21:44:46.465Z,12.13
2022-11-15T21:48:11.709Z,12.1
2022-11-15T21:51:36.953Z,12.06
2022-11-15T21:55:02.198Z,12.02
2022-11-15T21:58:27.415Z,12.03
2022-11-15T22:01:52.669Z,12.05
2022-11-15T22:05:17.881Z,12.05
2022-11-15T22:08:43.148Z,12.03
2022-11-15T22:12:08.410Z,12
2022-11-15T22:15:33.649Z,11.96
2022-11-15T22:18:58.880Z,11.92
2022-11-15T22:22:24.112Z,11.86
2022-11-15T22:25:49.359Z,11.84
2022-11-15T22:29:14.607Z,11.83
2022-11-15T22:32:39.813Z,11.84
2022-11-15T22:36:05.056Z,11.84
2022-11-15T22:39:30.279Z,11.83
2022-11-15T22:42:55.526Z,11.79
2022-11-15T22:46:20.836Z,11.76
2022-11-15T22:49:45.983Z,11.75
2022-11-15T22:53:11.193Z,11.74
2022-11-15T22:56:36.426Z,11.69
2022-11-15T23:00:01.645Z,11.67
2022-11-15T23:03:27.011Z,11.62
2022-11-15T23:06:52.146Z,11.55
2022-11-15T23:10:17.376Z,11.5
2022-11-15T23:13:42.634Z,11.5
2022-11-15T23:17:07.841Z,11.54
2022-11-15T23:20:42.778Z,11.51
2022-11-15T23:23:58.318Z,11.52
2022-11-15T23:27:23.543Z,11.54
2022-11-15T23:30:48.758Z,11.52
2022-11-15T23:34:16.337Z,11.5
2022-11-15T23:37:39.281Z,11.48
2022-11-15T23:41:04.498Z,11.49
2022-11-15T23:44:29.733Z,11.45
2022-11-15T23:48:00.052Z,11.41
2022-11-15T23:51:20.188Z,11.38
2022-11-15T23:54:45.452Z,11.31
2022-11-15T23:58:10.672Z,11.25
